<?xml version="1.0" encoding="UTF-8" standalone="no" ?><gpx xmlns="http://www.topografix.com/GPX/1/1" xmlns:gpxx="http://www.garmin.com/xmlschemas/GpxExtensions/v3" xmlns:wptx1="http://www.garmin.com/xmlschemas/WaypointExtension/v1" xmlns:gpxtpx="http://www.garmin.com/xmlschemas/TrackPointExtension/v1" creator="GuideVTT.com" version="1.1" xmlns:xsi="http://www.w3.org/2001/XMLSchema-instance" xsi:schemaLocation="http://www.topografix.com/GPX/1/1 http://www.topografix.com/GPX/1/1/gpx.xsd http://www.garmin.com/xmlschemas/GpxExtensions/v3 http://www8.garmin.com/xmlschemas/GpxExtensionsv3.xsd http://www.garmin.com/xmlschemas/WaypointExtension/v1 http://www8.garmin.com/xmlschemas/WaypointExtensionv1.xsd http://www.garmin.com/xmlschemas/TrackPointExtension/v1 http://www.garmin.com/xmlschemas/TrackPointExtensionv1.xsd">
<metadata><link href="http://www.garmin.com"><text>Garmin International</text></link><time>2013-06-22T15:13:50Z</time></metadata>
<trk><name>rp2015_04.gpx</name><extensions><gpxx:TrackExtension><gpxx:DisplayColor>Cyan</gpxx:DisplayColor></gpxx:TrackExtension></extensions><trkseg>
<trkpt lat="46.4882975165" lon="6.7256611492"><ele></ele><time>2015-5-17T20:16:17Z</time></trkpt>
<trkpt lat="46.4882966783" lon="6.7256589700"><ele></ele><time>2015-5-17T20:16:20Z</time></trkpt>
<trkpt lat="46.4883063175" lon="6.7256315611"><ele></ele><time>2015-5-17T20:16:23Z</time></trkpt>
<trkpt lat="46.4883938245" lon="6.7259015422"><ele></ele><time>2015-5-17T20:16:26Z</time></trkpt>
<trkpt lat="46.4885089919" lon="6.7263858486"><ele></ele><time>2015-5-17T20:16:29Z</time></trkpt>
<trkpt lat="46.4886855148" lon="6.7268241383"><ele></ele><time>2015-5-17T20:16:32Z</time></trkpt>
<trkpt lat="46.4889450185" lon="6.7268627789"><ele></ele><time>2015-5-17T20:16:35Z</time></trkpt>
<trkpt lat="46.4892336074" lon="6.7269358691"><ele></ele><time>2015-5-17T20:16:38Z</time></trkpt>
<trkpt lat="46.4893676341" lon="6.7271384597"><ele></ele><time>2015-5-17T20:16:41Z</time></trkpt>
<trkpt lat="46.4894268941" lon="6.7275794316"><ele></ele><time>2015-5-17T20:16:44Z</time></trkpt>
<trkpt lat="46.4894855674" lon="6.7280151229"><ele></ele><time>2015-5-17T20:16:47Z</time></trkpt>
<trkpt lat="46.4895574003" lon="6.7285354715"><ele></ele><time>2015-5-17T20:16:50Z</time></trkpt>
<trkpt lat="46.4896547981" lon="6.7289011739"><ele></ele><time>2015-5-17T20:16:53Z</time></trkpt>
<trkpt lat="46.4898577239" lon="6.7292655353"><ele></ele><time>2015-5-17T20:16:56Z</time></trkpt>
<trkpt lat="46.4901606459" lon="6.7295422219"><ele></ele><time>2015-5-17T20:16:59Z</time></trkpt>
<trkpt lat="46.4904262684" lon="6.7297481652"><ele></ele><time>2015-5-17T20:17:2Z</time></trkpt>
<trkpt lat="46.4906980935" lon="6.7299781647"><ele></ele><time>2015-5-17T20:17:5Z</time></trkpt>
<trkpt lat="46.4910383150" lon="6.7302664183"><ele></ele><time>2015-5-17T20:17:8Z</time></trkpt>
<trkpt lat="46.4912753552" lon="6.7306816578"><ele></ele><time>2015-5-17T20:17:11Z</time></trkpt>
<trkpt lat="46.4914018381" lon="6.7311906908"><ele></ele><time>2015-5-17T20:17:14Z</time></trkpt>
<trkpt lat="46.4915851504" lon="6.7317925952"><ele></ele><time>2015-5-17T20:17:17Z</time></trkpt>
<trkpt lat="46.4918591548" lon="6.7321698647"><ele></ele><time>2015-5-17T20:17:20Z</time></trkpt>
<trkpt lat="46.4921694528" lon="6.7325985152"><ele></ele><time>2015-5-17T20:17:23Z</time></trkpt>
<trkpt lat="46.4924082533" lon="6.7330671474"><ele></ele><time>2015-5-17T20:17:26Z</time></trkpt>
<trkpt lat="46.4926826768" lon="6.7334823869"><ele></ele><time>2015-5-17T20:17:29Z</time></trkpt>
<trkpt lat="46.4930588566" lon="6.7337076087"><ele></ele><time>2015-5-17T20:17:32Z</time></trkpt>
<trkpt lat="46.4934575837" lon="6.7339189164"><ele></ele><time>2015-5-17T20:17:35Z</time></trkpt>
<trkpt lat="46.4934932068" lon="6.7339609936"><ele></ele><time>2015-5-17T20:17:38Z</time></trkpt>
<trkpt lat="46.4935061149" lon="6.7340481654"><ele></ele><time>2015-5-17T20:17:41Z</time></trkpt>
<trkpt lat="46.4935232140" lon="6.7341556214"><ele></ele><time>2015-5-17T20:17:44Z</time></trkpt>
<trkpt lat="46.4935394749" lon="6.7341347504"><ele></ele><time>2015-5-17T20:17:47Z</time></trkpt>
<trkpt lat="46.4935600106" lon="6.7342045717"><ele></ele><time>2015-5-17T20:17:50Z</time></trkpt>
<trkpt lat="46.4936021715" lon="6.7343455553"><ele></ele><time>2015-5-17T20:17:53Z</time></trkpt>
<trkpt lat="46.4935686439" lon="6.7344478983"><ele></ele><time>2015-5-17T20:17:56Z</time></trkpt>
<trkpt lat="46.4933760278" lon="6.7348785605"><ele></ele><time>2015-5-17T20:17:59Z</time></trkpt>
<trkpt lat="46.4933642931" lon="6.7351962347"><ele></ele><time>2015-5-17T20:18:2Z</time></trkpt>
<trkpt lat="46.4934038557" lon="6.7356100492"><ele></ele><time>2015-5-17T20:18:5Z</time></trkpt>
<trkpt lat="46.4933888521" lon="6.7358866520"><ele></ele><time>2015-5-17T20:18:8Z</time></trkpt>
<trkpt lat="46.4933454338" lon="6.7363567092"><ele></ele><time>2015-5-17T20:18:11Z</time></trkpt>
<trkpt lat="46.4932662249" lon="6.7370982561"><ele></ele><time>2015-5-17T20:18:14Z</time></trkpt>
<trkpt lat="46.4931895304" lon="6.7374625336"><ele></ele><time>2015-5-17T20:18:17Z</time></trkpt>
<trkpt lat="46.4929621294" lon="6.7381288111"><ele></ele><time>2015-5-17T20:18:20Z</time></trkpt>
<trkpt lat="46.4928097464" lon="6.7386720423"><ele></ele><time>2015-5-17T20:18:23Z</time></trkpt>
<trkpt lat="46.4927640650" lon="6.7394157685"><ele></ele><time>2015-5-17T20:18:26Z</time></trkpt>
<trkpt lat="46.4928040467" lon="6.7402649391"><ele></ele><time>2015-5-17T20:18:29Z</time></trkpt>
<trkpt lat="46.4926688466" lon="6.7410665005"><ele></ele><time>2015-5-17T20:18:32Z</time></trkpt>
<trkpt lat="46.4925193973" lon="6.7418677267"><ele></ele><time>2015-5-17T20:18:35Z</time></trkpt>
<trkpt lat="46.4925680961" lon="6.7424499337"><ele></ele><time>2015-5-17T20:18:38Z</time></trkpt>
<trkpt lat="46.4925901406" lon="6.7426641751"><ele></ele><time>2015-5-17T20:18:41Z</time></trkpt>
<trkpt lat="46.4924946707" lon="6.7431517504"><ele></ele><time>2015-5-17T20:18:44Z</time></trkpt>
<trkpt lat="46.4922980312" lon="6.7437134217"><ele></ele><time>2015-5-17T20:18:47Z</time></trkpt>
<trkpt lat="46.4922817703" lon="6.7440213729"><ele></ele><time>2015-5-17T20:18:50Z</time></trkpt>
<trkpt lat="46.4922808483" lon="6.7441542260"><ele></ele><time>2015-5-17T20:18:53Z</time></trkpt>
<trkpt lat="46.4924826007" lon="6.7446900811"><ele></ele><time>2015-5-17T20:18:56Z</time></trkpt>
<trkpt lat="46.4924822655" lon="6.7449749820"><ele></ele><time>2015-5-17T20:18:59Z</time></trkpt>
<trkpt lat="46.4924406912" lon="6.7450891435"><ele></ele><time>2015-5-17T20:19:2Z</time></trkpt>
<trkpt lat="46.4923561178" lon="6.7452162132"><ele></ele><time>2015-5-17T20:19:5Z</time></trkpt>
<trkpt lat="46.4920832869" lon="6.7455091607"><ele></ele><time>2015-5-17T20:19:8Z</time></trkpt>
<trkpt lat="46.4919193368" lon="6.7459275015"><ele></ele><time>2015-5-17T20:19:11Z</time></trkpt>
<trkpt lat="46.4917706419" lon="6.7469463218"><ele></ele><time>2015-5-17T20:19:14Z</time></trkpt>
<trkpt lat="46.4915880002" lon="6.7474677600"><ele></ele><time>2015-5-17T20:19:17Z</time></trkpt>
<trkpt lat="46.4915759303" lon="6.7475018743"><ele></ele><time>2015-5-17T20:19:20Z</time></trkpt>
<trkpt lat="46.4915014990" lon="6.7476333864"><ele></ele><time>2015-5-17T20:19:23Z</time></trkpt>
<trkpt lat="46.4913761057" lon="6.7478810716"><ele></ele><time>2015-5-17T20:19:26Z</time></trkpt>
<trkpt lat="46.4913408179" lon="6.7478999309"><ele></ele><time>2015-5-17T20:19:29Z</time></trkpt>
<trkpt lat="46.4913315978" lon="6.7479869351"><ele></ele><time>2015-5-17T20:19:32Z</time></trkpt>
<trkpt lat="46.4912720025" lon="6.7481327802"><ele></ele><time>2015-5-17T20:19:35Z</time></trkpt>
<trkpt lat="46.4910287596" lon="6.7484158371"><ele></ele><time>2015-5-17T20:19:38Z</time></trkpt>
<trkpt lat="46.4907226525" lon="6.7486014124"><ele></ele><time>2015-5-17T20:19:41Z</time></trkpt>
<trkpt lat="46.4904766437" lon="6.7486771848"><ele></ele><time>2015-5-17T20:19:44Z</time></trkpt>
<trkpt lat="46.4902877156" lon="6.7489884887"><ele></ele><time>2015-5-17T20:19:47Z</time></trkpt>
<trkpt lat="46.4901153836" lon="6.7496559396"><ele></ele><time>2015-5-17T20:19:50Z</time></trkpt>
<trkpt lat="46.4899441414" lon="6.7500722688"><ele></ele><time>2015-5-17T20:19:53Z</time></trkpt>
<trkpt lat="46.4895349368" lon="6.7505959701"><ele></ele><time>2015-5-17T20:19:56Z</time></trkpt>
<trkpt lat="46.4893934503" lon="6.7511029914"><ele></ele><time>2015-5-17T20:19:59Z</time></trkpt>
<trkpt lat="46.4892969746" lon="6.7518067360"><ele></ele><time>2015-5-17T20:20:2Z</time></trkpt>
<trkpt lat="46.4889830723" lon="6.7521593627"><ele></ele><time>2015-5-17T20:20:5Z</time></trkpt>
<trkpt lat="46.4885464590" lon="6.7525783740"><ele></ele><time>2015-5-17T20:20:8Z</time></trkpt>
<trkpt lat="46.4882687666" lon="6.7531490140"><ele></ele><time>2015-5-17T20:20:11Z</time></trkpt>
<trkpt lat="46.4880069997" lon="6.7535833642"><ele></ele><time>2015-5-17T20:20:14Z</time></trkpt>
<trkpt lat="46.4877717197" lon="6.7541096639"><ele></ele><time>2015-5-17T20:20:17Z</time></trkpt>
<trkpt lat="46.4873501100" lon="6.7546847463"><ele></ele><time>2015-5-17T20:20:20Z</time></trkpt>
<trkpt lat="46.4868644625" lon="6.7552480102"><ele></ele><time>2015-5-17T20:20:23Z</time></trkpt>
<trkpt lat="46.4866034500" lon="6.7556399480"><ele></ele><time>2015-5-17T20:20:26Z</time></trkpt>
<trkpt lat="46.4862488117" lon="6.7562454566"><ele></ele><time>2015-5-17T20:20:29Z</time></trkpt>
<trkpt lat="46.4858914074" lon="6.7569094710"><ele></ele><time>2015-5-17T20:20:32Z</time></trkpt>
<trkpt lat="46.4855562150" lon="6.7574951984"><ele></ele><time>2015-5-17T20:20:35Z</time></trkpt>
<trkpt lat="46.4852392115" lon="6.7580197379"><ele></ele><time>2015-5-17T20:20:38Z</time></trkpt>
<trkpt lat="46.4849259797" lon="6.7585476302"><ele></ele><time>2015-5-17T20:20:41Z</time></trkpt>
<trkpt lat="46.4846325293" lon="6.7589674797"><ele></ele><time>2015-5-17T20:20:44Z</time></trkpt>
<trkpt lat="46.4842883684" lon="6.7593365349"><ele></ele><time>2015-5-17T20:20:47Z</time></trkpt>
<trkpt lat="46.4839899726" lon="6.7596831266"><ele></ele><time>2015-5-17T20:20:50Z</time></trkpt>
<trkpt lat="46.4836346637" lon="6.7602446303"><ele></ele><time>2015-5-17T20:20:53Z</time></trkpt>
<trkpt lat="46.4833593182" lon="6.7605664954"><ele></ele><time>2015-5-17T20:20:56Z</time></trkpt>
<trkpt lat="46.4830896724" lon="6.7609886080"><ele></ele><time>2015-5-17T20:20:59Z</time></trkpt>
<trkpt lat="46.4828154165" lon="6.7614862416"><ele></ele><time>2015-5-17T20:21:2Z</time></trkpt>
<trkpt lat="46.4824627060" lon="6.7620229349"><ele></ele><time>2015-5-17T20:21:5Z</time></trkpt>
<trkpt lat="46.4822150208" lon="6.7624843586"><ele></ele><time>2015-5-17T20:21:8Z</time></trkpt>
<trkpt lat="46.4820426051" lon="6.7628989276"><ele></ele><time>2015-5-17T20:21:11Z</time></trkpt>
<trkpt lat="46.4817928243" lon="6.7633907776"><ele></ele><time>2015-5-17T20:21:14Z</time></trkpt>
<trkpt lat="46.4815440495" lon="6.7638773471"><ele></ele><time>2015-5-17T20:21:17Z</time></trkpt>
<trkpt lat="46.4814134594" lon="6.7642020620"><ele></ele><time>2015-5-17T20:21:20Z</time></trkpt>
<trkpt lat="46.4812166523" lon="6.7647372466"><ele></ele><time>2015-5-17T20:21:23Z</time></trkpt>
<trkpt lat="46.4809973817" lon="6.7653827369"><ele></ele><time>2015-5-17T20:21:26Z</time></trkpt>
<trkpt lat="46.4807271492" lon="6.7658763472"><ele></ele><time>2015-5-17T20:21:29Z</time></trkpt>
<trkpt lat="46.4805211220" lon="6.7663872242"><ele></ele><time>2015-5-17T20:21:32Z</time></trkpt>
<trkpt lat="46.4803583454" lon="6.7670140229"><ele></ele><time>2015-5-17T20:21:35Z</time></trkpt>
<trkpt lat="46.4802503027" lon="6.7675570864"><ele></ele><time>2015-5-17T20:21:38Z</time></trkpt>
<trkpt lat="46.4803773724" lon="6.7680247128"><ele></ele><time>2015-5-17T20:21:41Z</time></trkpt>
<trkpt lat="46.4805081300" lon="6.7685136292"><ele></ele><time>2015-5-17T20:21:44Z</time></trkpt>
<trkpt lat="46.4804651309" lon="6.7689165473"><ele></ele><time>2015-5-17T20:21:47Z</time></trkpt>
<trkpt lat="46.4804282505" lon="6.7693336308"><ele></ele><time>2015-5-17T20:21:50Z</time></trkpt>
<trkpt lat="46.4804446790" lon="6.7698983196"><ele></ele><time>2015-5-17T20:21:53Z</time></trkpt>
<trkpt lat="46.4804098941" lon="6.7703221925"><ele></ele><time>2015-5-17T20:21:56Z</time></trkpt>
<trkpt lat="46.4803039469" lon="6.7707564589"><ele></ele><time>2015-5-17T20:21:59Z</time></trkpt>
<trkpt lat="46.4802669827" lon="6.7709475663"><ele></ele><time>2015-5-17T20:22:2Z</time></trkpt>
<trkpt lat="46.4802486263" lon="6.7711968441"><ele></ele><time>2015-5-17T20:22:5Z</time></trkpt>
<trkpt lat="46.4802223071" lon="6.7718198709"><ele></ele><time>2015-5-17T20:22:8Z</time></trkpt>
<trkpt lat="46.4801505581" lon="6.7723931931"><ele></ele><time>2015-5-17T20:22:11Z</time></trkpt>
<trkpt lat="46.4800962433" lon="6.7728463188"><ele></ele><time>2015-5-17T20:22:14Z</time></trkpt>
<trkpt lat="46.4800964110" lon="6.7728795949"><ele></ele><time>2015-5-17T20:22:17Z</time></trkpt>
<trkpt lat="46.4800671581" lon="6.7730053235"><ele></ele><time>2015-5-17T20:22:20Z</time></trkpt>
<trkpt lat="46.4800985064" lon="6.7734895460"><ele></ele><time>2015-5-17T20:22:23Z</time></trkpt>
<trkpt lat="46.4802272525" lon="6.7738590203"><ele></ele><time>2015-5-17T20:22:26Z</time></trkpt>
<trkpt lat="46.4804976527" lon="6.7739628721"><ele></ele><time>2015-5-17T20:22:29Z</time></trkpt>
<trkpt lat="46.4807179291" lon="6.7738109082"><ele></ele><time>2015-5-17T20:22:32Z</time></trkpt>
<trkpt lat="46.4810242876" lon="6.7737651430"><ele></ele><time>2015-5-17T20:22:35Z</time></trkpt>
<trkpt lat="46.4812821988" lon="6.7740843259"><ele></ele><time>2015-5-17T20:22:38Z</time></trkpt>
<trkpt lat="46.4815086778" lon="6.7745081987"><ele></ele><time>2015-5-17T20:22:41Z</time></trkpt>
<trkpt lat="46.4816302992" lon="6.7746649403"><ele></ele><time>2015-5-17T20:22:44Z</time></trkpt>
<trkpt lat="46.4820188005" lon="6.7752479855"><ele></ele><time>2015-5-17T20:22:47Z</time></trkpt>
<trkpt lat="46.4822370652" lon="6.7756700981"><ele></ele><time>2015-5-17T20:22:50Z</time></trkpt>
<trkpt lat="46.4823322836" lon="6.7759745289"><ele></ele><time>2015-5-17T20:22:53Z</time></trkpt>
<trkpt lat="46.4821966644" lon="6.7761631217"><ele></ele><time>2015-5-17T20:22:56Z</time></trkpt>
<trkpt lat="46.4821220655" lon="6.7762200348"><ele></ele><time>2015-5-17T20:22:59Z</time></trkpt>
<trkpt lat="46.4818482287" lon="6.7766463384"><ele></ele><time>2015-5-17T20:23:2Z</time></trkpt>
<trkpt lat="46.4816691075" lon="6.7769700475"><ele></ele><time>2015-5-17T20:23:5Z</time></trkpt>
<trkpt lat="46.4815862104" lon="6.7771703750"><ele></ele><time>2015-5-17T20:23:8Z</time></trkpt>
<trkpt lat="46.4815879706" lon="6.7778987624"><ele></ele><time>2015-5-17T20:23:11Z</time></trkpt>
<trkpt lat="46.4816634916" lon="6.7781578470"><ele></ele><time>2015-5-17T20:23:14Z</time></trkpt>
<trkpt lat="46.4817536809" lon="6.7786479369"><ele></ele><time>2015-5-17T20:23:17Z</time></trkpt>
<trkpt lat="46.4818068221" lon="6.7791055888"><ele></ele><time>2015-5-17T20:23:20Z</time></trkpt>
<trkpt lat="46.4817014616" lon="6.7796734627"><ele></ele><time>2015-5-17T20:23:23Z</time></trkpt>
<trkpt lat="46.4809799474" lon="6.7804976553"><ele></ele><time>2015-5-17T20:23:26Z</time></trkpt>
<trkpt lat="46.4806777798" lon="6.7807662115"><ele></ele><time>2015-5-17T20:23:29Z</time></trkpt>
<trkpt lat="46.4805435017" lon="6.7811111268"><ele></ele><time>2015-5-17T20:23:32Z</time></trkpt>
<trkpt lat="46.4804015961" lon="6.7816802580"><ele></ele><time>2015-5-17T20:23:35Z</time></trkpt>
<trkpt lat="46.4801357221" lon="6.7822386604"><ele></ele><time>2015-5-17T20:23:38Z</time></trkpt>
<trkpt lat="46.4797593746" lon="6.7830795329"><ele></ele><time>2015-5-17T20:23:41Z</time></trkpt>
<trkpt lat="46.4796704426" lon="6.7834749073"><ele></ele><time>2015-5-17T20:23:44Z</time></trkpt>
<trkpt lat="46.4793973602" lon="6.7852054350"><ele></ele><time>2015-5-17T20:23:47Z</time></trkpt>
<trkpt lat="46.4788733236" lon="6.7868777923"><ele></ele><time>2015-5-17T20:23:50Z</time></trkpt>
<trkpt lat="46.4783236384" lon="6.7880666815"><ele></ele><time>2015-5-17T20:23:53Z</time></trkpt>
<trkpt lat="46.4780929685" lon="6.7887497228"><ele></ele><time>2015-5-17T20:23:56Z</time></trkpt>
<trkpt lat="46.4779873565" lon="6.7895690538"><ele></ele><time>2015-5-17T20:23:59Z</time></trkpt>
<trkpt lat="46.4779170323" lon="6.7900000513"><ele></ele><time>2015-5-17T20:24:2Z</time></trkpt>
<trkpt lat="46.4779950678" lon="6.7903687712"><ele></ele><time>2015-5-17T20:24:5Z</time></trkpt>
<trkpt lat="46.4779674076" lon="6.7906131037"><ele></ele><time>2015-5-17T20:24:8Z</time></trkpt>
<trkpt lat="46.4778649807" lon="6.7909591086"><ele></ele><time>2015-5-17T20:24:11Z</time></trkpt>
<trkpt lat="46.4778067265" lon="6.7912977375"><ele></ele><time>2015-5-17T20:24:14Z</time></trkpt>
<trkpt lat="46.4776691794" lon="6.7917137314"><ele></ele><time>2015-5-17T20:24:17Z</time></trkpt>
<trkpt lat="46.4773812611" lon="6.7922441382"><ele></ele><time>2015-5-17T20:24:20Z</time></trkpt>
<trkpt lat="46.4772967715" lon="6.7926953360"><ele></ele><time>2015-5-17T20:24:23Z</time></trkpt>
<trkpt lat="46.4772683568" lon="6.7929258384"><ele></ele><time>2015-5-17T20:24:26Z</time></trkpt>
<trkpt lat="46.4773002919" lon="6.7925837729"><ele></ele><time>2015-5-17T20:24:29Z</time></trkpt>
<trkpt lat="46.4773137029" lon="6.7924296297"><ele></ele><time>2015-5-17T20:24:32Z</time></trkpt>
<trkpt lat="46.4772926643" lon="6.7923683580"><ele></ele><time>2015-5-17T20:24:35Z</time></trkpt>
<trkpt lat="46.4772959333" lon="6.7923586350"><ele></ele><time>2015-5-17T20:24:38Z</time></trkpt>
<trkpt lat="46.4772417862" lon="6.7923580483"><ele></ele><time>2015-5-17T20:24:41Z</time></trkpt>
<trkpt lat="46.4772263635" lon="6.7923463136"><ele></ele><time>2015-5-17T20:24:44Z</time></trkpt>
<trkpt lat="46.4772256929" lon="6.7923475709"><ele></ele><time>2015-5-17T20:24:47Z</time></trkpt>
<trkpt lat="46.4772264473" lon="6.7923932523"><ele></ele><time>2015-5-17T20:24:50Z</time></trkpt>
<trkpt lat="46.4772489108" lon="6.7923882231"><ele></ele><time>2015-5-17T20:24:53Z</time></trkpt>
<trkpt lat="46.4773004595" lon="6.7923447210"><ele></ele><time>2015-5-17T20:24:56Z</time></trkpt>
<trkpt lat="46.4773141220" lon="6.7923924141"><ele></ele><time>2015-5-17T20:24:59Z</time></trkpt>
<trkpt lat="46.4773081709" lon="6.7925328109"><ele></ele><time>2015-5-17T20:25:2Z</time></trkpt>
<trkpt lat="46.4772618189" lon="6.7929807398"><ele></ele><time>2015-5-17T20:25:5Z</time></trkpt>
<trkpt lat="46.4772089291" lon="6.7932164390"><ele></ele><time>2015-5-17T20:25:8Z</time></trkpt>
<trkpt lat="46.4771309774" lon="6.7934897728"><ele></ele><time>2015-5-17T20:25:11Z</time></trkpt>
<trkpt lat="46.4771184046" lon="6.7936098855"><ele></ele><time>2015-5-17T20:25:14Z</time></trkpt>
<trkpt lat="46.4770002197" lon="6.7938845605"><ele></ele><time>2015-5-17T20:25:17Z</time></trkpt>
<trkpt lat="46.4768684562" lon="6.7941296473"><ele></ele><time>2015-5-17T20:25:20Z</time></trkpt>
<trkpt lat="46.4767692983" lon="6.7944196612"><ele></ele><time>2015-5-17T20:25:23Z</time></trkpt>
<trkpt lat="46.4767848048" lon="6.7947315518"><ele></ele><time>2015-5-17T20:25:26Z</time></trkpt>
<trkpt lat="46.4767949469" lon="6.7949086614"><ele></ele><time>2015-5-17T20:25:29Z</time></trkpt>
<trkpt lat="46.4766344335" lon="6.7952478770"><ele></ele><time>2015-5-17T20:25:32Z</time></trkpt>
<trkpt lat="46.4764693100" lon="6.7958633602"><ele></ele><time>2015-5-17T20:25:35Z</time></trkpt>
<trkpt lat="46.4763004147" lon="6.7964215111"><ele></ele><time>2015-5-17T20:25:38Z</time></trkpt>
<trkpt lat="46.4761877619" lon="6.7967052385"><ele></ele><time>2015-5-17T20:25:41Z</time></trkpt>
<trkpt lat="46.4761548210" lon="6.7970756348"><ele></ele><time>2015-5-17T20:25:44Z</time></trkpt>
<trkpt lat="46.4761514682" lon="6.7972923070"><ele></ele><time>2015-5-17T20:25:47Z</time></trkpt>
<trkpt lat="46.4759800583" lon="6.7976570036"><ele></ele><time>2015-5-17T20:25:50Z</time></trkpt>
<trkpt lat="46.4758227300" lon="6.7979850713"><ele></ele><time>2015-5-17T20:25:53Z</time></trkpt>
<trkpt lat="46.4757549204" lon="6.7983038351"><ele></ele><time>2015-5-17T20:25:56Z</time></trkpt>
<trkpt lat="46.4758199640" lon="6.7988707870"><ele></ele><time>2015-5-17T20:25:59Z</time></trkpt>
<trkpt lat="46.4758617058" lon="6.7989312205"><ele></ele><time>2015-5-17T20:26:2Z</time></trkpt>
<trkpt lat="46.4759520628" lon="6.7990410235"><ele></ele><time>2015-5-17T20:26:5Z</time></trkpt>
<trkpt lat="46.4760490414" lon="6.7994108330"><ele></ele><time>2015-5-17T20:26:8Z</time></trkpt>
<trkpt lat="46.4760041144" lon="6.7994809896"><ele></ele><time>2015-5-17T20:26:11Z</time></trkpt>
<trkpt lat="46.4758457802" lon="6.7998062912"><ele></ele><time>2015-5-17T20:26:14Z</time></trkpt>
<trkpt lat="46.4757534955" lon="6.8005345948"><ele></ele><time>2015-5-17T20:26:17Z</time></trkpt>
<trkpt lat="46.4757151902" lon="6.8007806875"><ele></ele><time>2015-5-17T20:26:20Z</time></trkpt>
<trkpt lat="46.4754950814" lon="6.8014386669"><ele></ele><time>2015-5-17T20:26:23Z</time></trkpt>
<trkpt lat="46.4752126951" lon="6.8024043459"><ele></ele><time>2015-5-17T20:26:26Z</time></trkpt>
<trkpt lat="46.4751020540" lon="6.8035325501"><ele></ele><time>2015-5-17T20:26:29Z</time></trkpt>
<trkpt lat="46.4750933368" lon="6.8036887888"><ele></ele><time>2015-5-17T20:26:32Z</time></trkpt>
<trkpt lat="46.4748928417" lon="6.8046984728"><ele></ele><time>2015-5-17T20:26:35Z</time></trkpt>
<trkpt lat="46.4747011475" lon="6.8054728769"><ele></ele><time>2015-5-17T20:26:38Z</time></trkpt>
<trkpt lat="46.4743708167" lon="6.8062563334"><ele></ele><time>2015-5-17T20:26:41Z</time></trkpt>
<trkpt lat="46.4742241334" lon="6.8065714929"><ele></ele><time>2015-5-17T20:26:44Z</time></trkpt>
<trkpt lat="46.4740098082" lon="6.8068747502"><ele></ele><time>2015-5-17T20:26:47Z</time></trkpt>
<trkpt lat="46.4738304354" lon="6.8070854712"><ele></ele><time>2015-5-17T20:26:50Z</time></trkpt>
<trkpt lat="46.4737995900" lon="6.8068614230"><ele></ele><time>2015-5-17T20:26:53Z</time></trkpt>
<trkpt lat="46.4738813136" lon="6.8065778632"><ele></ele><time>2015-5-17T20:26:56Z</time></trkpt>
<trkpt lat="46.4739250671" lon="6.8059763778"><ele></ele><time>2015-5-17T20:26:59Z</time></trkpt>
<trkpt lat="46.4737784676" lon="6.8057227414"><ele></ele><time>2015-5-17T20:27:2Z</time></trkpt>
<trkpt lat="46.4736815728" lon="6.8056813348"><ele></ele><time>2015-5-17T20:27:5Z</time></trkpt>
<trkpt lat="46.4734982606" lon="6.8053220026"><ele></ele><time>2015-5-17T20:27:8Z</time></trkpt>
<trkpt lat="46.4735293575" lon="6.8051223457"><ele></ele><time>2015-5-17T20:27:11Z</time></trkpt>
<trkpt lat="46.4737394918" lon="6.8043371290"><ele></ele><time>2015-5-17T20:27:14Z</time></trkpt>
<trkpt lat="46.4737666491" lon="6.8041518889"><ele></ele><time>2015-5-17T20:27:17Z</time></trkpt>
<trkpt lat="46.4738071337" lon="6.8036739528"><ele></ele><time>2015-5-17T20:27:20Z</time></trkpt>
<trkpt lat="46.4738941379" lon="6.8029986229"><ele></ele><time>2015-5-17T20:27:23Z</time></trkpt>
<trkpt lat="46.4738347102" lon="6.8024321739"><ele></ele><time>2015-5-17T20:27:26Z</time></trkpt>
<trkpt lat="46.4738931321" lon="6.8016987573"><ele></ele><time>2015-5-17T20:27:29Z</time></trkpt>
<trkpt lat="46.4738713391" lon="6.8011870421"><ele></ele><time>2015-5-17T20:27:32Z</time></trkpt>
<trkpt lat="46.4739404060" lon="6.8006521929"><ele></ele><time>2015-5-17T20:27:35Z</time></trkpt>
<trkpt lat="46.4740139153" lon="6.8002732471"><ele></ele><time>2015-5-17T20:27:38Z</time></trkpt>
<trkpt lat="46.4741287474" lon="6.8000378832"><ele></ele><time>2015-5-17T20:27:41Z</time></trkpt>
<trkpt lat="46.4741798770" lon="6.7999490350"><ele></ele><time>2015-5-17T20:27:44Z</time></trkpt>
<trkpt lat="46.4741664659" lon="6.7997712549"><ele></ele><time>2015-5-17T20:27:47Z</time></trkpt>
<trkpt lat="46.4741339441" lon="6.7996386532"><ele></ele><time>2015-5-17T20:27:50Z</time></trkpt>
<trkpt lat="46.4740611054" lon="6.7992281076"><ele></ele><time>2015-5-17T20:27:53Z</time></trkpt>
<trkpt lat="46.4740338642" lon="6.7988127004"><ele></ele><time>2015-5-17T20:27:56Z</time></trkpt>
<trkpt lat="46.4740073774" lon="6.7987712100"><ele></ele><time>2015-5-17T20:27:59Z</time></trkpt>
<trkpt lat="46.4737881068" lon="6.7984945234"><ele></ele><time>2015-5-17T20:28:2Z</time></trkpt>
<trkpt lat="46.4737637155" lon="6.7984688748"><ele></ele><time>2015-5-17T20:28:5Z</time></trkpt>
<trkpt lat="46.4737244043" lon="6.7983801942"><ele></ele><time>2015-5-17T20:28:8Z</time></trkpt>
<trkpt lat="46.4737263322" lon="6.7983807810"><ele></ele><time>2015-5-17T20:28:11Z</time></trkpt>
<trkpt lat="46.4737333730" lon="6.7982821260"><ele></ele><time>2015-5-17T20:28:14Z</time></trkpt>
<trkpt lat="46.4738333691" lon="6.7973746173"><ele></ele><time>2015-5-17T20:28:17Z</time></trkpt>
<trkpt lat="46.4739739336" lon="6.7968359124"><ele></ele><time>2015-5-17T20:28:20Z</time></trkpt>
<trkpt lat="46.4740875922" lon="6.7963925097"><ele></ele><time>2015-5-17T20:28:23Z</time></trkpt>
<trkpt lat="46.4742529672" lon="6.7959785275"><ele></ele><time>2015-5-17T20:28:26Z</time></trkpt>
<trkpt lat="46.4743199386" lon="6.7958315928"><ele></ele><time>2015-5-17T20:28:29Z</time></trkpt>
<trkpt lat="46.4743024204" lon="6.7953622900"><ele></ele><time>2015-5-17T20:28:32Z</time></trkpt>
<trkpt lat="46.4743205253" lon="6.7952818237"><ele></ele><time>2015-5-17T20:28:35Z</time></trkpt>
<trkpt lat="46.4744788595" lon="6.7945008818"><ele></ele><time>2015-5-17T20:28:38Z</time></trkpt>
<trkpt lat="46.4746989682" lon="6.7939115502"><ele></ele><time>2015-5-17T20:28:41Z</time></trkpt>
<trkpt lat="46.4750114456" lon="6.7931682430"><ele></ele><time>2015-5-17T20:28:44Z</time></trkpt>
<trkpt lat="46.4751319773" lon="6.7928148620"><ele></ele><time>2015-5-17T20:28:47Z</time></trkpt>
<trkpt lat="46.4750483260" lon="6.7926328909"><ele></ele><time>2015-5-17T20:28:50Z</time></trkpt>
<trkpt lat="46.4748717193" lon="6.7930003535"><ele></ele><time>2015-5-17T20:28:53Z</time></trkpt>
<trkpt lat="46.4747573063" lon="6.7930454481"><ele></ele><time>2015-5-17T20:28:56Z</time></trkpt>
<trkpt lat="46.4748571347" lon="6.7927600443"><ele></ele><time>2015-5-17T20:28:59Z</time></trkpt>
<trkpt lat="46.4751546923" lon="6.7917593289"><ele></ele><time>2015-5-17T20:29:2Z</time></trkpt>
<trkpt lat="46.4755042177" lon="6.7907781433"><ele></ele><time>2015-5-17T20:29:5Z</time></trkpt>
<trkpt lat="46.4757857658" lon="6.7903182283"><ele></ele><time>2015-5-17T20:29:8Z</time></trkpt>
<trkpt lat="46.4759881888" lon="6.7899826169"><ele></ele><time>2015-5-17T20:29:11Z</time></trkpt>
<trkpt lat="46.4762631990" lon="6.7895296589"><ele></ele><time>2015-5-17T20:29:14Z</time></trkpt>
<trkpt lat="46.4765098784" lon="6.7890068796"><ele></ele><time>2015-5-17T20:29:17Z</time></trkpt>
<trkpt lat="46.4766636025" lon="6.7881940026"><ele></ele><time>2015-5-17T20:29:20Z</time></trkpt>
<trkpt lat="46.4768316597" lon="6.7874408048"><ele></ele><time>2015-5-17T20:29:23Z</time></trkpt>
<trkpt lat="46.4769588970" lon="6.7868326977"><ele></ele><time>2015-5-17T20:29:26Z</time></trkpt>
<trkpt lat="46.4770748187" lon="6.7861465551"><ele></ele><time>2015-5-17T20:29:29Z</time></trkpt>
<trkpt lat="46.4771529380" lon="6.7855809443"><ele></ele><time>2015-5-17T20:29:32Z</time></trkpt>
<trkpt lat="46.4772215858" lon="6.7851130664"><ele></ele><time>2015-5-17T20:29:35Z</time></trkpt>
<trkpt lat="46.4773587976" lon="6.7846374772"><ele></ele><time>2015-5-17T20:29:38Z</time></trkpt>
<trkpt lat="46.4775148686" lon="6.7841319647"><ele></ele><time>2015-5-17T20:29:41Z</time></trkpt>
<trkpt lat="46.4777103346" lon="6.7836374324"><ele></ele><time>2015-5-17T20:29:44Z</time></trkpt>
<trkpt lat="46.4779684972" lon="6.7830561474"><ele></ele><time>2015-5-17T20:29:47Z</time></trkpt>
<trkpt lat="46.4782160148" lon="6.7825045343"><ele></ele><time>2015-5-17T20:29:50Z</time></trkpt>
<trkpt lat="46.4784486126" lon="6.7819688469"><ele></ele><time>2015-5-17T20:29:53Z</time></trkpt>
<trkpt lat="46.4784114808" lon="6.7815713771"><ele></ele><time>2015-5-17T20:29:56Z</time></trkpt>
<trkpt lat="46.4783202857" lon="6.7812619172"><ele></ele><time>2015-5-17T20:29:59Z</time></trkpt>
<trkpt lat="46.4783162624" lon="6.7812454049"><ele></ele><time>2015-5-17T20:30:2Z</time></trkpt>
<trkpt lat="46.4783965610" lon="6.7811993882"><ele></ele><time>2015-5-17T20:30:5Z</time></trkpt>
<trkpt lat="46.4784217067" lon="6.7811868992"><ele></ele><time>2015-5-17T20:30:8Z</time></trkpt>
<trkpt lat="46.4785125665" lon="6.7811352666"><ele></ele><time>2015-5-17T20:30:11Z</time></trkpt>
<trkpt lat="46.4786187652" lon="6.7810661998"><ele></ele><time>2015-5-17T20:30:14Z</time></trkpt>
<trkpt lat="46.4787051827" lon="6.7809867393"><ele></ele><time>2015-5-17T20:30:17Z</time></trkpt>
<trkpt lat="46.4787170850" lon="6.7809177563"><ele></ele><time>2015-5-17T20:30:20Z</time></trkpt>
<trkpt lat="46.4785767719" lon="6.7806155887"><ele></ele><time>2015-5-17T20:30:23Z</time></trkpt>
<trkpt lat="46.4784105588" lon="6.7803342920"><ele></ele><time>2015-5-17T20:30:26Z</time></trkpt>
<trkpt lat="46.4782490395" lon="6.7796183098"><ele></ele><time>2015-5-17T20:30:29Z</time></trkpt>
<trkpt lat="46.4782536495" lon="6.7786416505"><ele></ele><time>2015-5-17T20:30:32Z</time></trkpt>
<trkpt lat="46.4782231394" lon="6.7783917021"><ele></ele><time>2015-5-17T20:30:35Z</time></trkpt>
<trkpt lat="46.4781056251" lon="6.7780111637"><ele></ele><time>2015-5-17T20:30:38Z</time></trkpt>
<trkpt lat="46.4777691755" lon="6.7774118576"><ele></ele><time>2015-5-17T20:30:41Z</time></trkpt>
<trkpt lat="46.4776148647" lon="6.7771184910"><ele></ele><time>2015-5-17T20:30:44Z</time></trkpt>
<trkpt lat="46.4776006155" lon="6.7770116217"><ele></ele><time>2015-5-17T20:30:47Z</time></trkpt>
<trkpt lat="46.4776958339" lon="6.7769922595"><ele></ele><time>2015-5-17T20:30:50Z</time></trkpt>
<trkpt lat="46.4777677506" lon="6.7769139726"><ele></ele><time>2015-5-17T20:30:53Z</time></trkpt>
<trkpt lat="46.4778647292" lon="6.7767805327"><ele></ele><time>2015-5-17T20:30:56Z</time></trkpt>
<trkpt lat="46.4780223928" lon="6.7766186781"><ele></ele><time>2015-5-17T20:30:59Z</time></trkpt>
<trkpt lat="46.4782108180" lon="6.7765027564"><ele></ele><time>2015-5-17T20:31:2Z</time></trkpt>
<trkpt lat="46.4783366304" lon="6.7764152493"><ele></ele><time>2015-5-17T20:31:5Z</time></trkpt>
<trkpt lat="46.4783430845" lon="6.7764113098"><ele></ele><time>2015-5-17T20:31:8Z</time></trkpt>
<trkpt lat="46.4784372970" lon="6.7762860004"><ele></ele><time>2015-5-17T20:31:11Z</time></trkpt>
<trkpt lat="46.4784504566" lon="6.7762789596"><ele></ele><time>2015-5-17T20:31:14Z</time></trkpt>
<trkpt lat="46.4786306676" lon="6.7761988286"><ele></ele><time>2015-5-17T20:31:17Z</time></trkpt>
<trkpt lat="46.4788149856" lon="6.7762171850"><ele></ele><time>2015-5-17T20:31:20Z</time></trkpt>
<trkpt lat="46.4790656883" lon="6.7760294303"><ele></ele><time>2015-5-17T20:31:23Z</time></trkpt>
<trkpt lat="46.4790487569" lon="6.7756716907"><ele></ele><time>2015-5-17T20:31:26Z</time></trkpt>
<trkpt lat="46.4790021535" lon="6.7756061442"><ele></ele><time>2015-5-17T20:31:29Z</time></trkpt>
<trkpt lat="46.4788797777" lon="6.7753202375"><ele></ele><time>2015-5-17T20:31:32Z</time></trkpt>
<trkpt lat="46.4787243772" lon="6.7750263680"><ele></ele><time>2015-5-17T20:31:35Z</time></trkpt>
<trkpt lat="46.4787098765" lon="6.7749635037"><ele></ele><time>2015-5-17T20:31:38Z</time></trkpt>
<trkpt lat="46.4786424022" lon="6.7745163292"><ele></ele><time>2015-5-17T20:31:41Z</time></trkpt>
<trkpt lat="46.4786203578" lon="6.7739245668"><ele></ele><time>2015-5-17T20:31:44Z</time></trkpt>
<trkpt lat="46.4786239620" lon="6.7736990098"><ele></ele><time>2015-5-17T20:31:47Z</time></trkpt>
<trkpt lat="46.4787392132" lon="6.7730401922"><ele></ele><time>2015-5-17T20:31:50Z</time></trkpt>
<trkpt lat="46.4786540531" lon="6.7728421278"><ele></ele><time>2015-5-17T20:31:53Z</time></trkpt>
<trkpt lat="46.4782502968" lon="6.7721603438"><ele></ele><time>2015-5-17T20:31:56Z</time></trkpt>
<trkpt lat="46.4780886937" lon="6.7718913686"><ele></ele><time>2015-5-17T20:31:59Z</time></trkpt>
<trkpt lat="46.4780375641" lon="6.7718314379"><ele></ele><time>2015-5-17T20:32:2Z</time></trkpt>
<trkpt lat="46.4779677428" lon="6.7718848307"><ele></ele><time>2015-5-17T20:32:5Z</time></trkpt>
<trkpt lat="46.4776558522" lon="6.7723729927"><ele></ele><time>2015-5-17T20:32:8Z</time></trkpt>
<trkpt lat="46.4775670879" lon="6.7725201789"><ele></ele><time>2015-5-17T20:32:11Z</time></trkpt>
<trkpt lat="46.4771739766" lon="6.7733452097"><ele></ele><time>2015-5-17T20:32:14Z</time></trkpt>
<trkpt lat="46.4769583102" lon="6.7737031169"><ele></ele><time>2015-5-17T20:32:17Z</time></trkpt>
<trkpt lat="46.4766272251" lon="6.7745137308"><ele></ele><time>2015-5-17T20:32:20Z</time></trkpt>
<trkpt lat="46.4765351079" lon="6.7746460810"><ele></ele><time>2015-5-17T20:32:23Z</time></trkpt>
<trkpt lat="46.4765016641" lon="6.7745586578"><ele></ele><time>2015-5-17T20:32:26Z</time></trkpt>
<trkpt lat="46.4765597507" lon="6.7743771058"><ele></ele><time>2015-5-17T20:32:29Z</time></trkpt>
<trkpt lat="46.4768035803" lon="6.7736691702"><ele></ele><time>2015-5-17T20:32:32Z</time></trkpt>
<trkpt lat="46.4769899100" lon="6.7732828483"><ele></ele><time>2015-5-17T20:32:35Z</time></trkpt>
<trkpt lat="46.4772163052" lon="6.7723770160"><ele></ele><time>2015-5-17T20:32:38Z</time></trkpt>
<trkpt lat="46.4773768187" lon="6.7717740219"><ele></ele><time>2015-5-17T20:32:41Z</time></trkpt>
<trkpt lat="46.4776365738" lon="6.7713304516"><ele></ele><time>2015-5-17T20:32:44Z</time></trkpt>
<trkpt lat="46.4778031223" lon="6.7709455546"><ele></ele><time>2015-5-17T20:32:47Z</time></trkpt>
<trkpt lat="46.4778764639" lon="6.7706334125"><ele></ele><time>2015-5-17T20:32:50Z</time></trkpt>
<trkpt lat="46.4779552538" lon="6.7703924328"><ele></ele><time>2015-5-17T20:32:53Z</time></trkpt>
<trkpt lat="46.4780115802" lon="6.7701698933"><ele></ele><time>2015-5-17T20:32:56Z</time></trkpt>
<trkpt lat="46.4782897756" lon="6.7693772167"><ele></ele><time>2015-5-17T20:32:59Z</time></trkpt>
<trkpt lat="46.4785323478" lon="6.7682406306"><ele></ele><time>2015-5-17T20:33:2Z</time></trkpt>
<trkpt lat="46.4788672887" lon="6.7671731953"><ele></ele><time>2015-5-17T20:33:5Z</time></trkpt>
<trkpt lat="46.4791156445" lon="6.7666011304"><ele></ele><time>2015-5-17T20:33:8Z</time></trkpt>
<trkpt lat="46.4793834463" lon="6.7658698931"><ele></ele><time>2015-5-17T20:33:11Z</time></trkpt>
<trkpt lat="46.4796359092" lon="6.7651953176"><ele></ele><time>2015-5-17T20:33:14Z</time></trkpt>
<trkpt lat="46.4797950815" lon="6.7645375896"><ele></ele><time>2015-5-17T20:33:17Z</time></trkpt>
<trkpt lat="46.4799162000" lon="6.7642870545"><ele></ele><time>2015-5-17T20:33:20Z</time></trkpt>
<trkpt lat="46.4801340457" lon="6.7638160754"><ele></ele><time>2015-5-17T20:33:23Z</time></trkpt>
<trkpt lat="46.4802506380" lon="6.7636636924"><ele></ele><time>2015-5-17T20:33:26Z</time></trkpt>
<trkpt lat="46.4803774562" lon="6.7634945456"><ele></ele><time>2015-5-17T20:33:29Z</time></trkpt>
<trkpt lat="46.4804921206" lon="6.7632814776"><ele></ele><time>2015-5-17T20:33:32Z</time></trkpt>
<trkpt lat="46.4806114789" lon="6.7630051263"><ele></ele><time>2015-5-17T20:33:35Z</time></trkpt>
<trkpt lat="46.4807345252" lon="6.7627364025"><ele></ele><time>2015-5-17T20:33:38Z</time></trkpt>
<trkpt lat="46.4808229543" lon="6.7625418585"><ele></ele><time>2015-5-17T20:33:41Z</time></trkpt>
<trkpt lat="46.4811232779" lon="6.7619697936"><ele></ele><time>2015-5-17T20:33:44Z</time></trkpt>
<trkpt lat="46.4814090170" lon="6.7614891753"><ele></ele><time>2015-5-17T20:33:47Z</time></trkpt>
<trkpt lat="46.4816118591" lon="6.7610871792"><ele></ele><time>2015-5-17T20:33:50Z</time></trkpt>
<trkpt lat="46.4816566184" lon="6.7609627917"><ele></ele><time>2015-5-17T20:33:53Z</time></trkpt>
<trkpt lat="46.4818148687" lon="6.7606762145"><ele></ele><time>2015-5-17T20:33:56Z</time></trkpt>
<trkpt lat="46.4820360672" lon="6.7603843566"><ele></ele><time>2015-5-17T20:33:59Z</time></trkpt>
<trkpt lat="46.4822405018" lon="6.7601748928"><ele></ele><time>2015-5-17T20:34:2Z</time></trkpt>
<trkpt lat="46.4826459344" lon="6.7597363517"><ele></ele><time>2015-5-17T20:34:5Z</time></trkpt>
<trkpt lat="46.4828507882" lon="6.7594618443"><ele></ele><time>2015-5-17T20:34:8Z</time></trkpt>
<trkpt lat="46.4833862241" lon="6.7588202097"><ele></ele><time>2015-5-17T20:34:11Z</time></trkpt>
<trkpt lat="46.4836547803" lon="6.7585030384"><ele></ele><time>2015-5-17T20:34:14Z</time></trkpt>
<trkpt lat="46.4838087559" lon="6.7582481448"><ele></ele><time>2015-5-17T20:34:17Z</time></trkpt>
<trkpt lat="46.4841666631" lon="6.7579361703"><ele></ele><time>2015-5-17T20:34:20Z</time></trkpt>
<trkpt lat="46.4843674097" lon="6.7576668598"><ele></ele><time>2015-5-17T20:34:23Z</time></trkpt>
<trkpt lat="46.4847493730" lon="6.7571216170"><ele></ele><time>2015-5-17T20:34:26Z</time></trkpt>
<trkpt lat="46.4849140774" lon="6.7568124924"><ele></ele><time>2015-5-17T20:34:29Z</time></trkpt>
<trkpt lat="46.4851713181" lon="6.7565086484"><ele></ele><time>2015-5-17T20:34:32Z</time></trkpt>
<trkpt lat="46.4854350127" lon="6.7559657525"><ele></ele><time>2015-5-17T20:34:35Z</time></trkpt>
<trkpt lat="46.4856246952" lon="6.7555615772"><ele></ele><time>2015-5-17T20:34:38Z</time></trkpt>
<trkpt lat="46.4857484121" lon="6.7552869860"><ele></ele><time>2015-5-17T20:34:41Z</time></trkpt>
<trkpt lat="46.4860164654" lon="6.7549188528"><ele></ele><time>2015-5-17T20:34:44Z</time></trkpt>
<trkpt lat="46.4865221456" lon="6.7544543277"><ele></ele><time>2015-5-17T20:34:47Z</time></trkpt>
<trkpt lat="46.4868803881" lon="6.7540146131"><ele></ele><time>2015-5-17T20:34:50Z</time></trkpt>
<trkpt lat="46.4872406423" lon="6.7533735652"><ele></ele><time>2015-5-17T20:34:53Z</time></trkpt>
<trkpt lat="46.4874669537" lon="6.7529839743"><ele></ele><time>2015-5-17T20:34:56Z</time></trkpt>
<trkpt lat="46.4878013916" lon="6.7523707543"><ele></ele><time>2015-5-17T20:34:59Z</time></trkpt>
<trkpt lat="46.4878514316" lon="6.7522840854"><ele></ele><time>2015-5-17T20:35:2Z</time></trkpt>
<trkpt lat="46.4879987855" lon="6.7518798262"><ele></ele><time>2015-5-17T20:35:5Z</time></trkpt>
<trkpt lat="46.4882636536" lon="6.7514304724"><ele></ele><time>2015-5-17T20:35:8Z</time></trkpt>
<trkpt lat="46.4883470535" lon="6.7511317413"><ele></ele><time>2015-5-17T20:35:11Z</time></trkpt>
<trkpt lat="46.4884159528" lon="6.7506380472"><ele></ele><time>2015-5-17T20:35:14Z</time></trkpt>
<trkpt lat="46.4884844329" lon="6.7504225485"><ele></ele><time>2015-5-17T20:35:17Z</time></trkpt>
<trkpt lat="46.4885092434" lon="6.7503886856"><ele></ele><time>2015-5-17T20:35:20Z</time></trkpt>
<trkpt lat="46.4885195531" lon="6.7503795493"><ele></ele><time>2015-5-17T20:35:23Z</time></trkpt>
<trkpt lat="46.4885334671" lon="6.7503777891"><ele></ele><time>2015-5-17T20:35:26Z</time></trkpt>
<trkpt lat="46.4886047132" lon="6.7502892762"><ele></ele><time>2015-5-17T20:35:29Z</time></trkpt>
<trkpt lat="46.4886748698" lon="6.7501764558"><ele></ele><time>2015-5-17T20:35:32Z</time></trkpt>
<trkpt lat="46.4888298512" lon="6.7500254139"><ele></ele><time>2015-5-17T20:35:35Z</time></trkpt>
<trkpt lat="46.4890279155" lon="6.7498982605"><ele></ele><time>2015-5-17T20:35:38Z</time></trkpt>
<trkpt lat="46.4891238883" lon="6.7498229071"><ele></ele><time>2015-5-17T20:35:41Z</time></trkpt>
<trkpt lat="46.4892707393" lon="6.7496276926"><ele></ele><time>2015-5-17T20:35:44Z</time></trkpt>
<trkpt lat="46.4893784467" lon="6.7493365053"><ele></ele><time>2015-5-17T20:35:47Z</time></trkpt>
<trkpt lat="46.4894952066" lon="6.7486177571"><ele></ele><time>2015-5-17T20:35:50Z</time></trkpt>
<trkpt lat="46.4895283151" lon="6.7484158371"><ele></ele><time>2015-5-17T20:35:53Z</time></trkpt>
<trkpt lat="46.4898690395" lon="6.7474007048"><ele></ele><time>2015-5-17T20:35:56Z</time></trkpt>
<trkpt lat="46.4900971949" lon="6.7469189130"><ele></ele><time>2015-5-17T20:35:59Z</time></trkpt>
<trkpt lat="46.4903767314" lon="6.7464170884"><ele></ele><time>2015-5-17T20:36:2Z</time></trkpt>
<trkpt lat="46.4905996062" lon="6.7460561637"><ele></ele><time>2015-5-17T20:36:5Z</time></trkpt>
<trkpt lat="46.4907307830" lon="6.7456703447"><ele></ele><time>2015-5-17T20:36:8Z</time></trkpt>
<trkpt lat="46.4908033703" lon="6.7451128643"><ele></ele><time>2015-5-17T20:36:11Z</time></trkpt>
<trkpt lat="46.4908255823" lon="6.7449366767"><ele></ele><time>2015-5-17T20:36:14Z</time></trkpt>
<trkpt lat="46.4909433480" lon="6.7447718885"><ele></ele><time>2015-5-17T20:36:17Z</time></trkpt>
<trkpt lat="46.4910769556" lon="6.7447293922"><ele></ele><time>2015-5-17T20:36:20Z</time></trkpt>
<trkpt lat="46.4913088828" lon="6.7445866484"><ele></ele><time>2015-5-17T20:36:23Z</time></trkpt>
<trkpt lat="46.4914019220" lon="6.7443209421"><ele></ele><time>2015-5-17T20:36:26Z</time></trkpt>
<trkpt lat="46.4914229605" lon="6.7441048566"><ele></ele><time>2015-5-17T20:36:29Z</time></trkpt>
<trkpt lat="46.4915216994" lon="6.7439460196"><ele></ele><time>2015-5-17T20:36:32Z</time></trkpt>
<trkpt lat="46.4917068556" lon="6.7437622882"><ele></ele><time>2015-5-17T20:36:35Z</time></trkpt>
<trkpt lat="46.4918746613" lon="6.7436496355"><ele></ele><time>2015-5-17T20:36:38Z</time></trkpt>
<trkpt lat="46.4919029083" lon="6.7435605358"><ele></ele><time>2015-5-17T20:36:41Z</time></trkpt>
<trkpt lat="46.4918977115" lon="6.7428506725"><ele></ele><time>2015-5-17T20:36:44Z</time></trkpt>
<trkpt lat="46.4917685464" lon="6.7420680542"><ele></ele><time>2015-5-17T20:36:47Z</time></trkpt>
<trkpt lat="46.4917030837" lon="6.7415663972"><ele></ele><time>2015-5-17T20:36:50Z</time></trkpt>
<trkpt lat="46.4916296583" lon="6.7412341386"><ele></ele><time>2015-5-17T20:36:53Z</time></trkpt>
<trkpt lat="46.4915398043" lon="6.7409197334"><ele></ele><time>2015-5-17T20:36:56Z</time></trkpt>
<trkpt lat="46.4914947934" lon="6.7401163280"><ele></ele><time>2015-5-17T20:36:59Z</time></trkpt>
<trkpt lat="46.4912671410" lon="6.7394220550"><ele></ele><time>2015-5-17T20:37:2Z</time></trkpt>
<trkpt lat="46.4910754468" lon="6.7388549354"><ele></ele><time>2015-5-17T20:37:5Z</time></trkpt>
<trkpt lat="46.4910985809" lon="6.7387549393"><ele></ele><time>2015-5-17T20:37:8Z</time></trkpt>
<trkpt lat="46.4911513031" lon="6.7385601439"><ele></ele><time>2015-5-17T20:37:11Z</time></trkpt>
<trkpt lat="46.4913260657" lon="6.7372280918"><ele></ele><time>2015-5-17T20:37:14Z</time></trkpt>
<trkpt lat="46.4912951365" lon="6.7362360936"><ele></ele><time>2015-5-17T20:37:17Z</time></trkpt>
<trkpt lat="46.4912777022" lon="6.7357079498"><ele></ele><time>2015-5-17T20:37:20Z</time></trkpt>
<trkpt lat="46.4911375567" lon="6.7352631222"><ele></ele><time>2015-5-17T20:37:23Z</time></trkpt>
<trkpt lat="46.4909572620" lon="6.7342969403"><ele></ele><time>2015-5-17T20:37:26Z</time></trkpt>
<trkpt lat="46.4906962495" lon="6.7334272340"><ele></ele><time>2015-5-17T20:37:29Z</time></trkpt>
<trkpt lat="46.4905278571" lon="6.7326782271"><ele></ele><time>2015-5-17T20:37:32Z</time></trkpt>
<trkpt lat="46.4903582074" lon="6.7319439724"><ele></ele><time>2015-5-17T20:37:35Z</time></trkpt>
<trkpt lat="46.4902121946" lon="6.7314439919"><ele></ele><time>2015-5-17T20:37:38Z</time></trkpt>
<trkpt lat="46.4899579715" lon="6.7308304366"><ele></ele><time>2015-5-17T20:37:41Z</time></trkpt>
<trkpt lat="46.4896706399" lon="6.7300556134"><ele></ele><time>2015-5-17T20:37:44Z</time></trkpt>
<trkpt lat="46.4895231184" lon="6.7296389490"><ele></ele><time>2015-5-17T20:37:47Z</time></trkpt>
<trkpt lat="46.4891808853" lon="6.7287166882"><ele></ele><time>2015-5-17T20:37:50Z</time></trkpt>
<trkpt lat="46.4889808092" lon="6.7279429547"><ele></ele><time>2015-5-17T20:37:53Z</time></trkpt>
<trkpt lat="46.4889458567" lon="6.7278148793"><ele></ele><time>2015-5-17T20:37:56Z</time></trkpt>
<trkpt lat="46.4889457729" lon="6.7276852950"><ele></ele><time>2015-5-17T20:37:59Z</time></trkpt>
<trkpt lat="46.4890212938" lon="6.7274632584"><ele></ele><time>2015-5-17T20:38:2Z</time></trkpt>
<trkpt lat="46.4890700765" lon="6.7270830553"><ele></ele><time>2015-5-17T20:38:5Z</time></trkpt>
<trkpt lat="46.4891185239" lon="6.7268694006"><ele></ele><time>2015-5-17T20:38:8Z</time></trkpt>
<trkpt lat="46.4889977407" lon="6.7267530598"><ele></ele><time>2015-5-17T20:38:11Z</time></trkpt>
<trkpt lat="46.4889101498" lon="6.7267883476"><ele></ele><time>2015-5-17T20:38:14Z</time></trkpt>
<trkpt lat="46.4886448625" lon="6.7266398203"><ele></ele><time>2015-5-17T20:38:17Z</time></trkpt>
<trkpt lat="46.4886385761" lon="6.7263040412"><ele></ele><time>2015-5-17T20:38:20Z</time></trkpt>
<trkpt lat="46.4886078984" lon="6.7260689288"><ele></ele><time>2015-5-17T20:38:23Z</time></trkpt>
<trkpt lat="46.4884737879" lon="6.7256710399"><ele></ele><time>2015-5-17T20:38:26Z</time></trkpt>
<trkpt lat="46.4883135259" lon="6.7256377637"><ele></ele><time>2015-5-17T20:38:29Z</time></trkpt>
<trkpt lat="46.4882805012" lon="6.7256798409"><ele></ele><time>2015-5-17T20:38:32Z</time></trkpt>
</trkseg></trk></gpx>